Beaulieu, Minnesota
Current Conditions -  °F | °C
As of 12:35 AM on Saturday 20 Dec 2014 (Local Time) from K3N8 Reporting Station
Haze Haze  
Wind Chill: 20°   Ceiling: 300
Heat Index: 29°   Visibility: 3mi
Dew Point: 28°   Wind: 12mph
Humidity: 96%   Direction: 190°S
Pressure: 30.01"   Gusts: NA
Location:  47.3584°N, 95.8016°W
Report Text: K3N8 200635Z AUTO 19010KT 3SM BR OVC003 M01/M02 A3001 RMK AO2 T10151020
Loading
Personal Weather Stations






























Interactive Weather Map New forecast layout! Learn more

10-Day Weather Forecast

Advertisements
Track Severe Weather on mobile